Time;durP1;ratioP1;P1;durP2;ratioP2;P2;SDS_P1;SDS_P2;PMS_P1;PMS_P2;Temp;Humidity;BMP_temperature;BMP_pressure;BME280_temperature;BME280_humidity;BME280_pressure;Samples;Min_cycle;Max_cycle;Signal;HPM_P1;HPM_P2
2023/03/04 00:01:47;;;;;;;31.23;16.65;;;8.50;93.20;;;;;;7403251;19;19922;-73
2023/03/04 00:04:13;;;;;;;;;;;8.50;92.80;;;;;;7408613;19;20253;-72
2023/03/04 00:06:38;;;;;;;35.30;16.92;;;8.50;92.50;;;;;;7404183;19;19915;-72
2023/03/04 00:09:04;;;;;;;33.40;17.40;;;8.50;92.40;;;;;;7401018;19;19914;-73
2023/03/04 00:11:31;;;;;;;32.20;16.83;;;8.50;92.40;;;;;;7404161;19;19915;-73
2023/03/04 00:13:57;;;;;;;34.47;18.02;;;8.40;92.40;;;;;;7406088;19;19991;-72
2023/03/04 00:16:27;;;;;;;29.33;15.88;;;8.40;92.50;;;;;;7400936;19;19955;-73
2023/03/04 00:18:57;;;;;;;33.35;16.65;;;8.50;92.30;;;;;;7405937;19;19942;-73
2023/03/04 00:21:23;;;;;;;34.08;18.38;;;8.40;92.10;;;;;;7403100;19;19923;-73
2023/03/04 00:23:49;;;;;;;30.95;16.77;;;8.40;92.00;;;;;;7406101;19;20242;-73
2023/03/04 00:26:16;;;;;;;31.63;17.35;;;8.40;92.20;;;;;;7399574;19;20259;-72
2023/03/04 00:28:42;;;;;;;31.85;17.52;;;8.40;92.10;;;;;;7403129;19;20270;-72
2023/03/04 00:31:08;;;;;;;30.85;17.08;;;8.30;92.20;;;;;;7401789;19;19915;-73
2023/03/04 00:33:35;;;;;;;32.63;16.80;;;8.30;92.30;;;;;;7402412;19;19915;-72
2023/03/04 00:36:01;;;;;;;33.92;16.90;;;8.20;92.50;;;;;;7404729;19;19915;-72
2023/03/04 00:38:27;;;;;;;30.13;16.20;;;8.10;92.40;;;;;;7348407;19;19947;-73
2023/03/04 00:40:53;;;;;;;30.73;17.05;;;8.10;92.70;;;;;;7402135;19;19919;-72
2023/03/04 00:43:20;;;;;;;34.78;17.08;;;8.10;92.80;;;;;;7377739;19;20271;-72
2023/03/04 00:45:45;;;;;;;30.60;16.30;;;8.10;92.90;;;;;;7380426;19;20319;-72
2023/03/04 00:48:12;;;;;;;29.83;16.58;;;8.00;92.90;;;;;;7401361;19;19939;-73
2023/03/04 00:50:38;;;;;;;30.02;15.70;;;8.10;92.80;;;;;;7402886;19;19919;-73
2023/03/04 00:53:04;;;;;;;29.73;15.23;;;8.20;92.10;;;;;;7402907;19;19914;-73
2023/03/04 00:55:30;;;;;;;30.55;15.98;;;8.30;92.00;;;;;;7402471;19;20305;-73
2023/03/04 00:57:56;;;;;;;28.05;14.25;;;8.40;91.30;;;;;;7401934;19;19911;-73
2023/03/04 01:00:22;;;;;;;25.08;12.02;;;8.40;90.80;;;;;;7397479;19;19934;-74
2023/03/04 01:02:48;;;;;;;21.33;11.18;;;8.50;89.00;;;;;;7403811;19;19935;-74
2023/03/04 01:05:14;;;;;;;22.90;10.25;;;8.60;86.90;;;;;;7402013;19;19917;-74
2023/03/04 01:07:40;;;;;;;19.30;9.48;;;8.60;85.60;;;;;;7381053;19;19942;-72
2023/03/04 01:10:08;;;;;;;18.42;9.45;;;8.70;84.50;;;;;;7398258;19;19926;-73
2023/03/04 01:12:34;;;;;;;17.60;8.45;;;8.70;84.30;;;;;;7402852;19;19919;-73
2023/03/04 01:15:00;;;;;;;18.73;9.27;;;8.80;83.90;;;;;;7404170;19;20024;-72
2023/03/04 01:17:26;;;;;;;20.67;9.43;;;8.80;83.10;;;;;;7400741;19;19918;-73
2023/03/04 01:19:51;;;;;;;18.58;8.55;;;8.80;82.60;;;;;;7402157;19;19946;-72
2023/03/04 01:22:17;;;;;;;20.15;9.27;;;8.80;82.10;;;;;;7402233;19;19970;-75
2023/03/04 01:24:44;;;;;;;18.77;8.85;;;8.80;81.60;;;;;;7402440;19;20828;-72
2023/03/04 01:27:10;;;;;;;18.42;9.02;;;8.90;81.20;;;;;;7402949;19;19915;-74
2023/03/04 01:29:36;;;;;;;20.33;9.70;;;8.90;81.50;;;;;;7402742;19;20250;-72
2023/03/04 01:32:03;;;;;;;22.33;10.40;;;8.90;80.80;;;;;;7402296;19;19927;-73
2023/03/04 01:34:28;;;;;;;21.00;9.18;;;8.90;81.00;;;;;;7402338;19;20268;-73
2023/03/04 01:36:54;;;;;;;18.13;9.32;;;8.80;81.20;;;;;;7404611;19;20002;-74
2023/03/04 01:39:20;;;;;;;21.65;9.38;;;8.80;81.30;;;;;;7401847;19;19926;-72
2023/03/04 01:41:46;;;;;;;23.40;10.30;;;8.80;81.60;;;;;;7400580;19;19915;-73
2023/03/04 01:44:14;;;;;;;18.02;10.40;;;8.70;81.70;;;;;;7401027;19;19918;-73
2023/03/04 01:46:45;;;;;;;20.67;9.90;;;8.70;82.00;;;;;;7400434;19;19921;-73
2023/03/04 01:49:14;;;;;;;20.35;9.35;;;8.60;82.20;;;;;;7400990;19;19906;-72
2023/03/04 01:51:49;;;;;;;19.15;9.70;;;8.60;82.40;;;;;;7404202;19;19943;-73
2023/03/04 01:54:16;;;;;;;21.45;10.57;;;8.50;82.60;;;;;;7375768;19;19918;-72
2023/03/04 01:56:45;;;;;;;18.67;9.52;;;8.60;82.50;;;;;;7409034;19;19922;-73
2023/03/04 01:59:18;;;;;;;21.58;10.18;;;8.60;82.50;;;;;;7407995;19;19914;-72
2023/03/04 02:01:48;;;;;;;22.05;9.98;;;8.60;82.40;;;;;;7407392;19;20283;-73
2023/03/04 02:04:18;;;;;;;24.88;10.35;;;8.60;82.00;;;;;;7406471;19;20346;-72
2023/03/04 02:06:45;;;;;;;19.48;8.63;;;8.60;81.60;;;;;;7409346;19;19964;-72
2023/03/04 02:09:12;;;;;;;19.10;8.98;;;8.60;81.40;;;;;;7406141;19;19982;-74
2023/03/04 02:11:38;;;;;;;20.23;10.00;;;8.60;81.20;;;;;;7402564;19;19914;-73
2023/03/04 02:14:06;;;;;;;21.98;9.80;;;8.60;81.50;;;;;;7382478;19;20272;-73
2023/03/04 02:16:32;;;;;;;;;;;8.60;81.90;;;;;;7409339;19;19950;-74
2023/03/04 02:18:58;;;;;;;20.65;8.80;;;8.60;81.30;;;;;;7408018;19;19911;-73
2023/03/04 02:21:29;;;;;;;20.70;9.52;;;8.60;80.90;;;;;;7408851;19;19919;-73
2023/03/04 02:24:16;;;;;;;21.42;9.18;;;8.60;81.10;;;;;;7408282;19;19949;-73
2023/03/04 02:26:43;;;;;;;16.08;8.02;;;8.50;81.20;;;;;;7408773;19;20484;-73
2023/03/04 02:29:14;;;;;;;19.45;9.35;;;8.50;80.90;;;;;;7386319;19;19915;-73
2023/03/04 02:31:46;;;;;;;20.35;8.60;;;8.50;80.90;;;;;;7407114;19;20328;-73
2023/03/04 02:34:16;;;;;;;21.65;9.18;;;8.60;80.30;;;;;;7384871;19;19918;-72
2023/03/04 02:36:45;;;;;;;21.70;9.43;;;8.60;80.50;;;;;;7407769;19;19914;-73
2023/03/04 02:39:19;;;;;;;21.90;9.35;;;8.60;80.40;;;;;;7407833;19;20183;-72
2023/03/04 02:41:49;;;;;;;23.77;10.23;;;8.50;80.80;;;;;;7385620;19;19926;-73
2023/03/04 02:44:22;;;;;;;21.85;10.75;;;8.50;81.00;;;;;;7402207;19;19914;-73
2023/03/04 02:46:49;;;;;;;19.48;8.98;;;8.40;81.30;;;;;;7407013;19;19918;-73
2023/03/04 02:49:15;;;;;;;19.13;8.80;;;8.30;81.50;;;;;;7375611;19;19918;-72
2023/03/04 02:51:41;;;;;;;24.60;9.23;;;8.30;81.30;;;;;;7403796;19;19915;-73
2023/03/04 02:54:21;;;;;;;20.10;9.70;;;8.30;81.30;;;;;;7405947;19;20338;-73
2023/03/04 02:56:50;;;;;;;21.33;9.23;;;8.30;81.50;;;;;;7406816;19;19910;-73
2023/03/04 02:59:17;;;;;;;20.20;10.05;;;8.20;81.60;;;;;;7405856;19;19914;-73
2023/03/04 03:01:44;;;;;;;23.30;10.43;;;8.20;81.90;;;;;;7405094;19;19945;-73
2023/03/04 03:04:11;;;;;;;24.55;10.73;;;8.10;82.20;;;;;;7404757;19;19925;-72
2023/03/04 03:06:37;;;;;;;20.02;9.25;;;8.00;82.40;;;;;;7406060;19;19910;-72
2023/03/04 03:09:03;;;;;;;21.50;9.90;;;8.00;82.80;;;;;;7403817;19;19919;-72
2023/03/04 03:11:30;;;;;;;21.13;10.30;;;8.00;83.40;;;;;;7407852;19;19923;-72
2023/03/04 03:13:56;;;;;;;19.67;9.82;;;8.00;82.80;;;;;;7406378;19;20385;-74
2023/03/04 03:16:22;;;;;;;26.23;10.02;;;8.00;82.60;;;;;;7405683;19;20733;-73
2023/03/04 03:18:48;;;;;;;20.95;9.95;;;8.00;82.60;;;;;;7407716;19;19911;-73
2023/03/04 03:21:14;;;;;;;19.80;9.20;;;8.00;82.60;;;;;;7406287;19;19970;-72
2023/03/04 03:23:40;;;;;;;20.45;10.07;;;7.90;82.90;;;;;;7405778;19;19922;-72
2023/03/04 03:26:05;;;;;;;21.75;9.98;;;7.80;83.10;;;;;;7405057;19;19919;-73
2023/03/04 03:28:31;;;;;;;23.20;11.05;;;7.80;83.40;;;;;;7404479;19;19966;-73
2023/03/04 03:30:57;;;;;;;21.70;8.60;;;7.80;83.30;;;;;;7402993;19;19978;-73
2023/03/04 03:33:23;;;;;;;21.02;10.18;;;7.90;83.00;;;;;;7401833;19;19930;-72
2023/03/04 03:35:49;;;;;;;20.10;9.95;;;7.80;83.00;;;;;;7406543;19;19907;-72
2023/03/04 03:38:15;;;;;;;23.35;9.77;;;7.80;83.10;;;;;;7404924;19;19922;-72
2023/03/04 03:40:40;;;;;;;21.33;10.02;;;7.80;83.20;;;;;;7405425;19;19911;-72
2023/03/04 03:43:06;;;;;;;18.65;9.20;;;7.80;83.40;;;;;;7402000;19;19927;-73
2023/03/04 03:45:32;;;;;;;21.58;10.40;;;7.70;83.60;;;;;;7406316;19;19918;-72
2023/03/04 03:47:58;;;;;;;22.92;9.88;;;7.80;83.40;;;;;;7404861;19;19918;-72
2023/03/04 03:50:24;;;;;;;23.38;9.43;;;7.70;83.60;;;;;;7404291;19;20279;-72
2023/03/04 03:52:50;;;;;;;22.60;10.82;;;7.70;83.60;;;;;;7405912;19;19915;-73
2023/03/04 03:55:16;;;;;;;22.23;9.00;;;7.70;83.30;;;;;;7402367;19;19970;-72
2023/03/04 03:57:42;;;;;;;20.05;10.38;;;7.90;82.80;;;;;;7405107;19;20254;-74
2023/03/04 04:00:08;;;;;;;20.65;9.77;;;7.90;82.80;;;;;;7383101;19;19910;-72
2023/03/04 04:02:34;;;;;;;;;;;7.90;82.70;;;;;;7406466;19;19910;-73
2023/03/04 04:05:00;;;;;;;20.55;10.05;;;7.90;82.60;;;;;;7404434;19;19921;-72
2023/03/04 04:07:26;;;;;;;21.95;10.13;;;7.80;82.90;;;;;;7401559;19;19923;-72
2023/03/04 04:09:52;;;;;;;21.63;9.82;;;7.80;83.00;;;;;;7403708;19;19937;-72
2023/03/04 04:12:19;;;;;;;20.38;8.95;;;7.80;83.30;;;;;;7405661;19;19911;-74
2023/03/04 04:14:45;;;;;;;21.50;8.88;;;7.70;82.70;;;;;;7402727;19;19918;-72
2023/03/04 04:17:12;;;;;;;22.63;9.55;;;7.70;82.90;;;;;;7404155;19;19959;-73
2023/03/04 04:19:39;;;;;;;19.17;9.38;;;7.70;83.20;;;;;;7404382;19;20598;-72
2023/03/04 04:22:06;;;;;;;18.80;8.75;;;7.70;83.40;;;;;;7402025;19;20342;-72
2023/03/04 04:24:32;;;;;;;20.73;9.25;;;7.60;83.20;;;;;;7403642;19;19918;-72
2023/03/04 04:26:57;;;;;;;22.85;9.95;;;7.70;83.30;;;;;;7403991;19;19954;-73
2023/03/04 04:29:23;;;;;;;22.20;10.85;;;7.70;83.50;;;;;;7402876;19;19914;-73
2023/03/04 04:31:49;;;;;;;19.55;9.93;;;7.60;83.50;;;;;;7403363;19;19941;-72
2023/03/04 04:34:15;;;;;;;21.58;10.48;;;7.50;84.10;;;;;;7348339;19;19922;-73
2023/03/04 04:36:41;;;;;;;19.48;9.00;;;7.60;84.10;;;;;;7404204;19;19918;-72
2023/03/04 04:39:07;;;;;;;23.42;9.40;;;7.60;83.50;;;;;;7401553;19;19919;-73
2023/03/04 04:41:39;;;;;;;21.77;11.05;;;7.60;83.70;;;;;;7402805;19;19919;-72
2023/03/04 04:44:05;;;;;;;20.13;9.52;;;7.50;84.10;;;;;;7399637;19;19998;-73
2023/03/04 04:46:31;;;;;;;23.98;11.25;;;7.50;84.20;;;;;;7371559;19;19922;-72
2023/03/04 04:48:57;;;;;;;21.48;10.50;;;7.40;84.30;;;;;;7400979;19;19918;-72
2023/03/04 04:51:23;;;;;;;22.67;10.50;;;7.30;84.80;;;;;;7397535;19;19938;-73
2023/03/04 04:53:48;;;;;;;22.95;10.73;;;7.20;85.30;;;;;;7369913;19;19928;-73
2023/03/04 04:56:18;;;;;;;21.83;9.88;;;7.10;85.90;;;;;;7401837;19;19923;-72
2023/03/04 04:58:44;;;;;;;23.00;11.10;;;7.10;85.80;;;;;;7400866;19;19929;-74
2023/03/04 05:01:11;;;;;;;22.95;10.43;;;7.00;86.00;;;;;;7367297;19;20246;-74
2023/03/04 05:03:37;;;;;;;20.67;9.77;;;7.20;85.30;;;;;;7403898;19;20375;-74
2023/03/04 05:06:05;;;;;;;20.33;9.25;;;7.30;85.50;;;;;;7402038;19;19918;-74
2023/03/04 05:08:31;;;;;;;20.25;9.38;;;7.30;85.20;;;;;;7403907;19;19926;-74
2023/03/04 05:10:57;;;;;;;22.58;10.52;;;7.20;85.40;;;;;;7369406;19;19919;-75
2023/03/04 05:13:23;;;;;;;21.88;10.55;;;7.10;86.20;;;;;;7401683;19;19947;-75
2023/03/04 05:15:52;;;;;;;19.48;9.70;;;7.10;86.00;;;;;;7402648;19;19923;-74
2023/03/04 05:18:18;;;;;;;20.40;9.75;;;7.10;85.90;;;;;;7399754;19;19947;-74
2023/03/04 05:20:44;;;;;;;21.33;9.80;;;7.00;86.00;;;;;;7401209;19;19925;-73
2023/03/04 05:23:10;;;;;;;21.92;10.13;;;6.90;86.30;;;;;;7400801;19;19922;-75
2023/03/04 05:25:35;;;;;;;19.92;10.32;;;6.90;86.30;;;;;;7402297;19;19910;-74
2023/03/04 05:28:03;;;;;;;18.20;9.00;;;6.90;86.40;;;;;;7408424;19;19911;-74
2023/03/04 05:30:29;;;;;;;20.40;9.48;;;6.90;86.00;;;;;;7407452;19;19914;-74
2023/03/04 05:32:55;;;;;;;22.27;11.07;;;7.10;86.20;;;;;;7407894;19;20456;-74
2023/03/04 05:35:20;;;;;;;20.60;9.05;;;7.30;85.40;;;;;;7377613;19;19962;-74
2023/03/04 05:37:46;;;;;;;19.50;9.98;;;7.40;84.30;;;;;;7410838;19;19918;-74
2023/03/04 05:40:12;;;;;;;21.85;9.43;;;7.40;85.00;;;;;;7406403;19;20376;-74
2023/03/04 05:42:38;;;;;;;23.48;10.30;;;7.30;85.30;;;;;;7410037;19;20275;-75
2023/03/04 05:45:04;;;;;;;24.55;10.13;;;7.10;85.40;;;;;;7405951;19;19919;-73
2023/03/04 05:47:30;;;;;;;24.02;10.88;;;7.20;85.80;;;;;;7410331;19;19939;-72
2023/03/04 05:49:56;;;;;;;24.20;10.50;;;7.10;86.00;;;;;;7406444;19;19910;-75
2023/03/04 05:52:22;;;;;;;22.55;10.05;;;7.00;86.10;;;;;;7385707;19;19931;-74
2023/03/04 05:54:48;;;;;;;22.90;10.80;;;7.00;86.50;;;;;;7409564;19;19939;-73
2023/03/04 05:57:14;;;;;;;20.27;10.50;;;7.00;86.80;;;;;;7406762;19;19911;-73
2023/03/04 05:59:40;;;;;;;21.52;11.27;;;7.00;87.00;;;;;;7377408;19;19913;-75
2023/03/04 06:02:06;;;;;;;25.45;11.10;;;6.90;87.30;;;;;;7408476;19;19915;-74
2023/03/04 06:04:32;;;;;;;23.10;9.90;;;6.90;87.00;;;;;;7408586;19;19915;-73
2023/03/04 06:06:57;;;;;;;20.23;10.60;;;7.00;87.40;;;;;;7408759;19;19915;-74
2023/03/04 06:09:23;;;;;;;19.27;9.32;;;6.90;87.10;;;;;;7406018;19;20323;-75
2023/03/04 06:11:49;;;;;;;20.27;9.48;;;7.00;87.20;;;;;;7406658;19;20042;-73
2023/03/04 06:14:15;;;;;;;23.92;11.05;;;6.90;87.40;;;;;;7405560;19;19960;-73
2023/03/04 06:16:41;;;;;;;23.60;10.80;;;7.10;88.10;;;;;;7407696;19;19907;-75
2023/03/04 06:19:06;;;;;;;22.85;11.32;;;7.10;88.30;;;;;;7402506;19;20272;-73
2023/03/04 06:21:32;;;;;;;22.58;11.05;;;7.00;88.20;;;;;;7408876;19;19911;-74
2023/03/04 06:23:58;;;;;;;22.50;10.40;;;6.90;88.50;;;;;;7404232;19;19934;-74
2023/03/04 06:26:24;;;;;;;19.83;8.55;;;7.00;87.70;;;;;;7405695;19;19929;-74
2023/03/04 06:28:49;;;;;;;23.38;10.32;;;7.10;87.80;;;;;;7406132;19;19930;-74
2023/03/04 06:31:16;;;;;;;25.85;11.02;;;7.40;86.70;;;;;;7405782;19;19907;-74
2023/03/04 06:33:42;;;;;;;22.00;10.52;;;7.30;87.50;;;;;;7408325;19;19947;-74
2023/03/04 06:36:07;;;;;;;24.63;10.25;;;7.20;88.10;;;;;;7405292;19;19919;-74
2023/03/04 06:38:34;;;;;;;23.77;10.75;;;7.10;88.50;;;;;;7406137;19;19931;-75
2023/03/04 06:41:08;;;;;;;25.13;10.50;;;7.00;88.50;;;;;;7406858;19;19922;-74
2023/03/04 06:43:34;;;;;;;24.40;11.43;;;7.10;88.50;;;;;;7405071;19;19929;-74
2023/03/04 06:46:00;;;;;;;22.80;11.15;;;7.00;88.90;;;;;;7409500;19;20340;-74
2023/03/04 06:48:27;;;;;;;23.63;10.60;;;7.10;87.40;;;;;;7404351;19;19919;-74
2023/03/04 06:50:53;;;;;;;21.27;10.63;;;7.20;86.40;;;;;;7408045;19;20006;-74
2023/03/04 06:53:18;;;;;;;16.52;7.63;;;7.20;86.30;;;;;;7403444;19;19943;-75
2023/03/04 06:55:44;;;;;;;23.90;11.10;;;7.30;85.70;;;;;;7404590;19;19936;-75
2023/03/04 06:58:10;;;;;;;21.92;10.32;;;7.30;85.50;;;;;;7404884;19;19930;-75
2023/03/04 07:00:36;;;;;;;24.35;10.70;;;7.30;85.30;;;;;;7385923;19;19914;-74
2023/03/04 07:03:02;;;;;;;24.23;10.35;;;7.30;85.80;;;;;;7404188;19;19926;-74
2023/03/04 07:05:28;;;;;;;21.52;9.63;;;7.30;86.00;;;;;;7401192;19;19923;-76
2023/03/04 07:07:54;;;;;;;21.13;9.80;;;7.40;85.90;;;;;;7405967;19;20082;-75
2023/03/04 07:10:19;;;;;;;17.80;8.43;;;7.50;84.90;;;;;;7404005;19;19928;-74
2023/03/04 07:12:45;;;;;;;21.95;10.93;;;7.50;84.80;;;;;;7409451;19;19911;-75
2023/03/04 07:15:11;;;;;;;23.05;10.93;;;7.50;84.10;;;;;;7407396;19;20310;-75
2023/03/04 07:17:37;;;;;;;25.25;11.20;;;7.50;84.30;;;;;;7408272;19;20346;-76
2023/03/04 07:20:03;;;;;;;21.58;10.55;;;7.50;84.40;;;;;;7405257;19;19918;-74
2023/03/04 07:22:29;;;;;;;23.15;10.80;;;7.50;83.90;;;;;;7407199;19;19930;-76
2023/03/04 07:24:55;;;;;;;22.25;10.15;;;7.50;84.30;;;;;;7406658;19;19944;-75
2023/03/04 07:27:21;;;;;;;20.00;9.63;;;7.50;84.00;;;;;;7406135;19;19918;-75
2023/03/04 07:29:46;;;;;;;22.98;10.20;;;7.50;84.00;;;;;;7407995;19;19919;-74
2023/03/04 07:32:12;;;;;;;21.50;10.88;;;7.60;83.50;;;;;;7407179;19;20276;-75
2023/03/04 07:34:38;;;;;;;24.17;11.10;;;7.60;83.50;;;;;;7407691;19;19915;-75
2023/03/04 07:37:04;;;;;;;23.17;10.57;;;7.60;83.60;;;;;;7404674;19;19974;-74
2023/03/04 07:39:30;;;;;;;21.58;10.35;;;7.60;83.70;;;;;;7405082;19;19911;-75
2023/03/04 07:41:56;;;;;;;24.20;11.48;;;7.60;83.80;;;;;;7405140;19;19918;-75
2023/03/04 07:44:23;;;;;;;21.88;10.52;;;7.70;83.80;;;;;;7405282;19;19918;-74
2023/03/04 07:46:49;;;;;;;24.38;11.23;;;7.70;83.30;;;;;;7407174;19;19938;-75
2023/03/04 07:49:14;;;;;;;26.58;10.77;;;7.80;83.00;;;;;;7396944;19;19974;-74
2023/03/04 07:51:40;;;;;;;19.67;10.02;;;7.80;82.50;;;;;;7404775;19;19914;-74
2023/03/04 07:54:06;;;;;;;20.92;10.15;;;7.80;82.70;;;;;;7405579;19;19910;-74
2023/03/04 07:56:33;;;;;;;20.77;8.95;;;8.00;82.10;;;;;;7406243;19;20039;-74
2023/03/04 07:59:00;;;;;;;19.00;9.10;;;8.10;81.90;;;;;;7401063;19;20351;-75
2023/03/04 08:01:32;;;;;;;20.02;10.15;;;8.20;80.60;;;;;;7404427;19;19921;-75
2023/03/04 08:03:58;;;;;;;21.95;9.68;;;8.20;80.60;;;;;;7404927;19;20346;-74
2023/03/04 08:06:25;;;;;;;22.23;9.38;;;8.30;80.40;;;;;;7404333;19;19982;-75
2023/03/04 08:09:00;;;;;;;23.70;10.07;;;8.40;79.60;;;;;;7403708;19;19919;-74
2023/03/04 08:11:27;;;;;;;21.25;10.43;;;8.50;79.40;;;;;;7402987;19;20427;-74
2023/03/04 08:13:53;;;;;;;20.38;9.43;;;8.50;79.50;;;;;;7406659;19;19922;-76
2023/03/04 08:16:21;;;;;;;16.63;8.45;;;8.50;79.50;;;;;;7404706;19;19914;-76
2023/03/04 08:18:49;;;;;;;22.75;9.52;;;8.60;79.50;;;;;;7406348;19;19930;-76
2023/03/04 08:21:20;;;;;;;21.33;10.07;;;8.60;79.60;;;;;;7403100;19;19975;-74
2023/03/04 08:23:46;;;;;;;18.90;9.85;;;8.60;79.50;;;;;;7402002;19;19922;-75
2023/03/04 08:26:17;;;;;;;25.38;10.18;;;8.70;79.10;;;;;;7401185;19;19915;-75
2023/03/04 08:28:44;;;;;;;21.25;9.98;;;8.70;78.90;;;;;;7403387;19;19918;-75
2023/03/04 08:31:14;;;;;;;22.75;10.52;;;8.70;78.90;;;;;;7405126;19;19915;-74
2023/03/04 08:33:42;;;;;;;20.00;10.30;;;8.80;78.40;;;;;;7405414;19;20350;-76
2023/03/04 08:36:09;;;;;;;20.48;9.35;;;8.90;78.20;;;;;;7403170;19;19917;-74
2023/03/04 08:38:35;;;;;;;20.42;10.23;;;9.00;78.40;;;;;;7404819;19;20222;-74
2023/03/04 08:41:02;;;;;;;21.70;11.55;;;10.80;75.90;;;;;;7402747;19;19926;-75
2023/03/04 08:43:31;;;;;;;20.95;10.35;;;12.20;72.20;;;;;;7405980;19;19938;-74
2023/03/04 08:45:57;;;;;;;19.70;10.40;;;12.90;69.10;;;;;;7400976;19;20350;-74
2023/03/04 08:48:23;;;;;;;18.85;10.43;;;12.40;69.00;;;;;;7400511;19;19933;-75
2023/03/04 08:50:49;;;;;;;20.05;9.18;;;12.10;69.00;;;;;;7403076;19;19960;-75
2023/03/04 08:53:16;;;;;;;19.05;10.05;;;12.40;68.60;;;;;;7399650;19;19922;-75
2023/03/04 08:55:42;;;;;;;;;;;12.80;68.20;;;;;;7374375;19;19922;-74
2023/03/04 08:58:09;;;;;;;21.77;10.60;;;13.90;67.00;;;;;;7402016;19;20339;-74
2023/03/04 09:00:37;;;;;;;19.42;10.93;;;13.60;66.00;;;;;;7404585;19;19918;-74
2023/03/04 09:03:03;;;;;;;18.95;9.88;;;14.10;65.20;;;;;;7404843;19;19914;-75
2023/03/04 09:05:30;;;;;;;18.13;9.93;;;14.30;65.10;;;;;;7408955;19;19922;-74
2023/03/04 09:07:56;;;;;;;19.92;11.98;;;14.10;64.30;;;;;;7408730;19;20330;-77
2023/03/04 09:10:23;;;;;;;20.58;11.70;;;14.70;64.20;;;;;;7406188;19;19926;-75
2023/03/04 09:12:49;;;;;;;19.10;10.65;;;14.70;63.60;;;;;;7408469;19;19920;-75
2023/03/04 09:15:15;;;;;;;19.63;10.68;;;14.70;63.90;;;;;;7407951;19;19922;-75
2023/03/04 09:17:40;;;;;;;17.83;10.60;;;14.60;63.70;;;;;;7410097;19;19919;-75
2023/03/04 09:20:09;;;;;;;19.00;9.80;;;15.00;62.80;;;;;;7404395;19;19927;-74
2023/03/04 09:22:36;;;;;;;16.77;9.52;;;14.90;63.00;;;;;;7410296;19;19922;-75
2023/03/04 09:25:02;;;;;;;17.38;10.32;;;15.10;62.90;;;;;;7408165;19;19918;-74
2023/03/04 09:27:28;;;;;;;19.08;11.57;;;15.10;62.20;;;;;;7405962;19;20331;-74
2023/03/04 09:29:54;;;;;;;18.35;10.18;;;15.30;62.30;;;;;;7406352;19;19922;-76
2023/03/04 09:32:20;;;;;;;16.85;10.18;;;15.30;61.80;;;;;;7406690;19;19922;-74
2023/03/04 09:34:47;;;;;;;21.02;11.38;;;15.10;62.10;;;;;;7409905;19;19934;-75
2023/03/04 09:37:13;;;;;;;19.92;11.85;;;14.90;62.40;;;;;;7374837;19;19935;-74
2023/03/04 09:39:38;;;;;;;19.63;11.38;;;14.90;62.40;;;;;;7406175;19;19919;-75
2023/03/04 09:42:14;;;;;;;20.85;12.10;;;15.00;62.00;;;;;;7405395;19;19927;-75
2023/03/04 09:44:42;;;;;;;21.02;12.55;;;14.30;62.70;;;;;;7406902;19;19914;-75
2023/03/04 09:47:16;;;;;;;23.15;11.98;;;14.00;63.40;;;;;;7406950;19;19990;-74
2023/03/04 09:49:48;;;;;;;20.92;11.60;;;13.50;64.80;;;;;;7408788;19;19942;-74
2023/03/04 09:52:35;;;;;;;20.00;10.75;;;13.30;65.30;;;;;;7406408;19;19925;-74
2023/03/04 09:55:24;;;;;;;17.98;10.77;;;12.90;66.00;;;;;;7406948;19;19918;-74
2023/03/04 09:58:02;;;;;;;18.08;11.15;;;13.00;66.60;;;;;;7406977;19;19906;-75
2023/03/04 10:00:41;;;;;;;20.90;11.15;;;12.70;66.50;;;;;;7404529;19;19915;-74
2023/03/04 10:03:23;;;;;;;19.88;11.68;;;12.30;67.90;;;;;;7408181;19;19939;-74
2023/03/04 10:05:55;;;;;;;18.73;10.25;;;12.30;68.20;;;;;;7405420;19;19932;-73
2023/03/04 10:08:27;;;;;;;22.20;11.48;;;12.50;67.90;;;;;;7402038;19;19919;-74
2023/03/04 10:10:55;;;;;;;19.73;10.30;;;12.60;68.10;;;;;;7376442;19;19915;-75
2023/03/04 10:13:42;;;;;;;20.65;10.18;;;13.10;66.60;;;;;;7381034;19;19913;-75
2023/03/04 10:16:13;;;;;;;21.90;11.55;;;13.00;66.30;;;;;;7405572;19;19930;-76
2023/03/04 10:18:47;;;;;;;19.13;10.90;;;13.10;66.40;;;;;;7408876;19;19929;-75
2023/03/04 10:21:29;;;;;;;19.80;11.45;;;13.50;66.20;;;;;;7403130;19;19910;-74
2023/03/04 10:23:56;;;;;;;15.95;8.75;;;13.90;65.30;;;;;;7405363;19;19913;-75
2023/03/04 10:26:22;;;;;;;15.93;9.68;;;14.40;62.90;;;;;;7403801;19;19944;-75
2023/03/04 10:28:49;;;;;;;17.27;9.50;;;14.50;62.90;;;;;;7406721;19;19948;-74
2023/03/04 10:31:35;;;;;;;19.52;9.73;;;15.10;61.90;;;;;;7404919;19;20364;-74
2023/03/04 10:34:05;;;;;;;15.38;9.20;;;14.80;62.10;;;;;;7408546;19;19942;-73
2023/03/04 10:36:31;;;;;;;20.83;10.10;;;15.00;61.80;;;;;;7406760;19;19926;-75
2023/03/04 10:39:06;;;;;;;17.63;9.88;;;15.00;61.10;;;;;;7401807;19;19929;-75
2023/03/04 10:41:33;;;;;;;19.08;10.55;;;14.50;61.50;;;;;;7406942;19;20343;-75
2023/03/04 10:44:08;;;;;;;19.50;10.80;;;14.90;60.90;;;;;;7405364;19;19911;-75
2023/03/04 10:46:42;;;;;;;19.50;11.13;;;15.00;61.80;;;;;;7407351;19;20377;-73
2023/03/04 10:49:10;;;;;;;17.17;9.20;;;15.50;61.80;;;;;;7405868;19;19914;-75
2023/03/04 10:52:13;;;;;;;20.67;10.23;;;15.40;60.60;;;;;;7404379;19;19914;-75
2023/03/04 10:54:46;;;;;;;18.60;10.70;;;15.50;60.40;;;;;;7402630;19;19918;-74
2023/03/04 10:57:21;;;;;;;16.25;10.05;;;15.90;60.40;;;;;;7370133;19;19994;-74
2023/03/04 10:59:58;;;;;;;15.20;8.77;;;15.30;60.20;;;;;;7405841;19;20497;-75
2023/03/04 11:02:31;;;;;;;18.00;9.90;;;15.70;60.60;;;;;;7405994;19;19914;-74
2023/03/04 11:05:19;;;;;;;13.75;8.10;;;15.20;61.60;;;;;;7406915;19;19958;-75
2023/03/04 11:07:49;;;;;;;17.40;10.73;;;14.70;61.70;;;;;;7405587;19;19918;-74
2023/03/04 11:10:20;;;;;;;20.02;11.73;;;15.40;60.90;;;;;;7406464;19;19914;-74
2023/03/04 11:12:55;;;;;;;17.95;11.38;;;16.20;60.70;;;;;;7406812;19;19907;-74
2023/03/04 11:15:26;;;;;;;18.55;11.95;;;16.50;59.20;;;;;;7403488;19;20008;-75
2023/03/04 11:18:12;;;;;;;19.23;11.95;;;16.50;59.40;;;;;;7405678;19;19918;-75
2023/03/04 11:20:47;;;;;;;17.35;11.30;;;16.40;59.80;;;;;;7383097;19;19925;-74
2023/03/04 11:23:22;;;;;;;18.13;11.05;;;15.90;59.50;;;;;;7403585;19;19927;-75
2023/03/04 11:25:54;;;;;;;19.73;12.18;;;16.20;59.40;;;;;;7404933;19;19925;-74
2023/03/04 11:28:47;;;;;;;15.93;10.70;;;16.40;59.90;;;;;;7404245;19;20306;-74
2023/03/04 11:31:22;;;;;;;18.58;12.13;;;16.70;58.90;;;;;;7403279;19;19929;-75
2023/03/04 11:33:54;;;;;;;19.15;11.60;;;17.30;58.40;;;;;;7407249;19;19925;-75
2023/03/04 11:36:41;;;;;;;17.80;11.38;;;17.10;58.10;;;;;;7404668;19;19929;-74
2023/03/04 11:39:24;;;;;;;19.45;11.60;;;17.90;57.40;;;;;;7406252;19;19907;-75
2023/03/04 11:41:56;;;;;;;19.45;12.20;;;17.40;57.30;;;;;;7406525;19;20291;-75
2023/03/04 11:44:22;;;;;;;20.05;12.98;;;17.60;57.50;;;;;;7403492;19;19923;-74
2023/03/04 11:46:59;;;;;;;18.88;12.63;;;17.70;57.30;;;;;;7407131;19;19925;-74
2023/03/04 11:49:55;;;;;;;19.88;11.80;;;17.40;56.90;;;;;;7404603;19;20598;-74
2023/03/04 11:52:54;;;;;;;20.90;11.45;;;17.80;56.80;;;;;;7406287;19;19925;-75
2023/03/04 11:55:38;;;;;;;20.80;11.68;;;18.60;56.00;;;;;;7404408;19;20449;-74
2023/03/04 11:58:14;;;;;;;18.88;12.20;;;18.60;55.70;;;;;;7401014;19;19957;-76
2023/03/04 12:00:54;;;;;;;17.02;11.23;;;18.40;56.00;;;;;;7405768;19;19985;-74
2023/03/04 12:03:50;;;;;;;18.23;11.63;;;19.10;55.30;;;;;;7405027;19;19923;-75
2023/03/04 12:06:37;;;;;;;20.05;12.07;;;18.60;55.70;;;;;;7402807;19;19949;-75
2023/03/04 12:09:32;;;;;;;18.77;12.65;;;18.30;56.00;;;;;;7404739;19;19921;-75
2023/03/04 12:12:01;;;;;;;20.40;12.30;;;18.40;55.90;;;;;;7406291;19;19922;-75
2023/03/04 12:14:50;;;;;;;19.75;13.70;;;18.00;55.60;;;;;;7404139;19;20810;-75
2023/03/04 12:17:41;;;;;;;20.08;12.98;;;17.20;56.60;;;;;;7403757;19;19918;-75
2023/03/04 12:20:25;;;;;;;;;;;18.30;57.00;;;;;;7372218;19;20006;-76
2023/03/04 12:23:10;;;;;;;21.65;14.80;;;18.10;55.80;;;;;;7404813;19;19919;-74
2023/03/04 12:26:09;;;;;;;26.92;16.80;;;18.80;56.40;;;;;;7407051;19;20356;-76
2023/03/04 12:28:50;;;;;;;22.38;14.85;;;17.30;59.90;;;;;;7398224;19;20346;-76
2023/03/04 12:31:19;;;;;;;23.38;16.80;;;17.20;61.50;;;;;;7403125;19;20044;-75
2023/03/04 12:33:57;;;;;;;23.20;15.98;;;17.40;60.90;;;;;;7403059;19;19911;-74
2023/03/04 12:36:37;;;;;;;26.17;17.85;;;16.50;62.90;;;;;;7399682;19;20434;-74
2023/03/04 12:39:06;;;;;;;28.08;15.68;;;17.60;61.80;;;;;;7368652;19;19918;-75
2023/03/04 12:41:50;;;;;;;23.42;15.32;;;17.50;61.70;;;;;;7405427;19;19931;-75
2023/03/04 12:44:17;;;;;;;;;;;16.50;63.40;;;;;;7407150;19;19919;-75
2023/03/04 12:47:22;;;;;;;23.73;15.95;;;17.00;62.60;;;;;;7404317;19;20003;-75
2023/03/04 12:50:29;;;;;;;23.58;14.77;;;17.20;62.70;;;;;;7406037;19;19923;-74